Time;durP1;ratioP1;P1;durP2;ratioP2;P2;SDS_P1;SDS_P2;PMS_P1;PMS_P2;Temp;Humidity;BMP_temperature;BMP_pressure;BME280_temperature;BME280_humidity;BME280_pressure;Samples;Min_cycle;Max_cycle;Signal;HPM_P1;HPM_P2
2022/01/14 00:01:22;;;;;;;1.83;1.05;;;19.40;48.60;;;;;;6189408;28;20034;-69
2022/01/14 00:04:22;;;;;;;2.33;1.50;;;19.50;48.70;;;;;;6197937;28;20331;-69
2022/01/14 00:07:25;;;;;;;1.50;1.00;;;19.50;48.70;;;;;;6197322;28;20031;-69
2022/01/14 00:10:29;;;;;;;1.50;1.20;;;19.50;48.80;;;;;;6195740;28;20076;-69
2022/01/14 00:16:50;;;;;;;1.80;1.10;;;19.50;48.70;;;;;;6197788;28;20034;-69
2022/01/14 00:19:50;;;;;;;2.25;1.30;;;19.40;48.60;;;;;;6197536;28;20037;-69
2022/01/14 00:22:51;;;;;;;1.23;1.00;;;19.40;48.60;;;;;;6197178;28;20069;-69
2022/01/14 00:32:50;;;;;;;1.17;0.82;;;19.40;48.60;;;;;;6196120;28;20231;-69
2022/01/14 00:35:50;;;;;;;2.10;1.30;;;19.40;48.60;;;;;;6196963;28;20026;-68
2022/01/14 00:38:50;;;;;;;1.15;0.90;;;19.40;48.70;;;;;;6196920;28;20026;-69
2022/01/14 00:41:51;;;;;;;1.40;1.02;;;19.40;48.70;;;;;;6196884;28;20367;-69
2022/01/14 00:44:52;;;;;;;1.52;1.13;;;19.40;48.60;;;;;;6196874;28;20054;-69
2022/01/14 00:47:53;;;;;;;2.03;1.50;;;19.40;48.70;;;;;;6196825;28;20473;-69
2022/01/14 00:50:53;;;;;;;1.77;1.10;;;19.40;48.60;;;;;;6196698;28;20054;-69
2022/01/14 00:53:54;;;;;;;1.88;1.20;;;19.40;48.70;;;;;;6176942;28;20026;-69
2022/01/14 00:57:14;;;;;;;2.58;1.20;;;19.50;48.70;;;;;;6172379;28;20022;-69
2022/01/14 01:00:20;;;;;;;1.30;1.00;;;19.40;48.60;;;;;;6178949;28;20023;-69
2022/01/14 01:03:20;;;;;;;1.27;1.02;;;19.40;48.70;;;;;;6196371;28;20389;-69
2022/01/14 01:06:21;;;;;;;1.55;1.08;;;19.40;48.60;;;;;;6196259;28;20023;-68
2022/01/14 01:09:24;;;;;;;1.15;0.90;;;19.40;48.60;;;;;;6196203;28;20054;-69
2022/01/14 01:15:32;;;;;;;1.00;0.90;;;19.40;48.70;;;;;;6196487;28;20041;-69
2022/01/14 01:18:32;;;;;;;1.42;1.00;;;19.40;48.70;;;;;;6196038;28;20481;-68
2022/01/14 01:21:33;;;;;;;1.88;1.30;;;19.40;48.70;;;;;;6195933;28;20118;-69
2022/01/14 01:24:34;;;;;;;1.30;0.98;;;19.40;48.70;;;;;;6195677;28;20026;-69
2022/01/14 01:27:39;;;;;;;2.08;1.27;;;19.50;48.80;;;;;;6196045;28;20543;-69
2022/01/14 01:31:05;;;;;;;1.75;1.17;;;19.40;48.70;;;;;;6195664;28;20541;-69
2022/01/14 01:34:10;;;;;;;1.52;1.00;;;19.40;48.70;;;;;;6195405;28;20031;-69
2022/01/14 01:37:11;;;;;;;1.77;1.33;;;19.40;48.70;;;;;;6195591;28;20022;-68
2022/01/14 01:40:14;;;;;;;1.70;1.30;;;19.40;48.70;;;;;;6195684;28;20049;-69
2022/01/14 01:43:16;;;;;;;2.00;1.20;;;19.40;48.70;;;;;;6195019;28;20041;-69
2022/01/14 01:46:19;;;;;;;1.45;0.93;;;19.40;48.80;;;;;;6194859;28;20117;-69
2022/01/14 01:49:23;;;;;;;1.73;1.02;;;19.40;48.70;;;;;;6195281;28;20405;-69
2022/01/14 01:52:24;;;;;;;1.42;1.08;;;19.40;49.40;;;;;;6187615;28;20050;-69
2022/01/14 01:55:25;;;;;;;2.00;1.30;;;19.40;48.70;;;;;;6170889;28;20037;-69
2022/01/14 01:58:26;;;;;;;1.83;1.00;;;19.40;48.70;;;;;;6171373;28;20030;-69
2022/01/14 02:01:26;;;;;;;1.20;1.00;;;19.40;48.70;;;;;;6187106;28;20466;-68
2022/01/14 02:04:28;;;;;;;1.98;1.20;;;19.40;48.80;;;;;;6195167;28;20026;-69
2022/01/14 02:07:30;;;;;;;1.23;1.10;;;19.40;48.70;;;;;;6195060;28;20045;-69
2022/01/14 02:10:31;;;;;;;1.33;1.00;;;19.40;48.70;;;;;;6194674;28;20057;-69
2022/01/14 02:13:32;;;;;;;1.15;1.02;;;19.40;48.70;;;;;;6194789;28;20428;-69
2022/01/14 02:16:59;;;;;;;1.88;1.23;;;19.40;48.70;;;;;;6194841;28;20065;-69
2022/01/14 02:23:30;;;;;;;1.52;1.13;;;19.40;48.70;;;;;;6194354;28;20034;-68
2022/01/14 02:26:30;;;;;;;1.90;1.13;;;19.40;48.80;;;;;;6194616;28;20027;-69
2022/01/14 02:29:31;;;;;;;1.02;0.90;;;19.40;48.70;;;;;;6195014;28;20062;-68
2022/01/14 02:32:31;;;;;;;1.88;1.20;;;19.40;48.70;;;;;;6194334;28;20034;-69
2022/01/14 02:35:32;;;;;;;1.70;1.10;;;19.40;48.80;;;;;;6194539;28;20022;-69
2022/01/14 02:38:33;;;;;;;1.13;0.88;;;19.40;48.80;;;;;;6194495;28;20097;-69
2022/01/14 02:41:35;;;;;;;2.80;1.30;;;19.40;48.70;;;;;;6194488;28;20034;-69
2022/01/14 02:44:37;;;;;;;1.60;1.10;;;19.40;48.80;;;;;;6194422;28;20026;-69
2022/01/14 02:47:37;;;;;;;1.58;1.10;;;19.40;48.80;;;;;;6192550;28;20025;-69
2022/01/14 02:51:00;;;;;;;1.73;1.10;;;19.40;48.70;;;;;;6194491;28;20027;-69
2022/01/14 02:54:13;;;;;;;1.42;1.10;;;19.40;48.80;;;;;;6173670;28;20503;-69
2022/01/14 02:57:13;;;;;;;1.73;1.20;;;19.40;48.80;;;;;;6173985;28;20027;-69
2022/01/14 03:00:16;;;;;;;2.22;1.20;;;19.40;48.80;;;;;;6181707;28;20093;-69
2022/01/14 03:03:22;;;;;;;1.90;1.08;;;19.40;48.80;;;;;;6199128;28;20034;-69
2022/01/14 03:06:24;;;;;;;1.90;1.10;;;19.40;48.70;;;;;;6198928;28;20404;-69
2022/01/14 03:09:25;;;;;;;2.83;1.40;;;19.40;48.90;;;;;;6198889;28;20062;-69
2022/01/14 03:12:25;;;;;;;1.70;1.30;;;19.40;48.80;;;;;;6199012;28;20077;-69
2022/01/14 03:15:26;;;;;;;2.35;1.00;;;19.40;48.80;;;;;;6199008;28;20033;-68
2022/01/14 03:18:36;;;;;;;1.77;1.02;;;19.40;48.70;;;;;;6198751;28;20604;-69
2022/01/14 03:21:40;;;;;;;1.58;1.10;;;19.40;48.90;;;;;;6198722;28;20473;-69
2022/01/14 03:27:41;;;;;;;1.30;0.98;;;19.40;48.60;;;;;;6198868;28;20397;-69
2022/01/14 03:30:42;;;;;;;2.50;1.20;;;19.40;48.90;;;;;;6199091;28;20081;-69
2022/01/14 03:33:43;;;;;;;2.72;1.20;;;19.40;48.80;;;;;;6198250;28;20424;-69
2022/01/14 03:36:44;;;;;;;2.55;1.48;;;19.40;48.80;;;;;;6198639;28;20080;-69
2022/01/14 03:39:45;;;;;;;1.65;1.10;;;19.40;48.90;;;;;;6198151;28;20027;-69
2022/01/14 03:42:45;;;;;;;1.58;1.10;;;19.40;48.80;;;;;;6198365;28;20090;-69
2022/01/14 03:45:49;;;;;;;1.58;0.95;;;19.40;48.70;;;;;;6198149;28;20456;-68
2022/01/14 03:48:52;;;;;;;2.10;1.40;;;19.40;48.80;;;;;;6198296;28;20034;-69
2022/01/14 03:51:52;;;;;;;1.55;1.00;;;19.40;48.90;;;;;;6194535;28;20485;-68
2022/01/14 03:54:53;;;;;;;1.55;1.10;;;19.40;48.90;;;;;;6173950;28;20027;-69
2022/01/14 03:57:53;;;;;;;2.60;1.20;;;19.40;48.70;;;;;;6173743;28;20490;-69
2022/01/14 04:00:54;;;;;;;1.80;1.05;;;19.40;48.90;;;;;;6185678;28;20049;-69
2022/01/14 04:03:54;;;;;;;1.85;1.20;;;19.30;48.80;;;;;;6197925;28;20052;-69
2022/01/14 04:06:55;;;;;;;2.53;1.25;;;19.40;48.90;;;;;;6197106;28;20030;-68
2022/01/14 04:09:55;;;;;;;3.17;1.40;;;19.40;48.80;;;;;;6197214;28;20046;-69
2022/01/14 04:13:01;;;;;;;2.13;1.08;;;19.40;48.70;;;;;;6197576;28;20027;-69
2022/01/14 04:16:01;;;;;;;2.03;1.35;;;19.40;48.70;;;;;;6197300;28;20121;-69
2022/01/14 04:19:02;;;;;;;1.45;1.02;;;19.40;48.80;;;;;;6197460;28;20029;-69
2022/01/14 04:22:03;;;;;;;1.92;1.00;;;19.30;48.80;;;;;;6197531;28;20043;-69
2022/01/14 04:25:04;;;;;;;1.73;1.10;;;19.40;48.80;;;;;;6179576;28;20511;-69
2022/01/14 04:28:05;;;;;;;1.58;1.00;;;19.40;48.70;;;;;;6197192;28;20033;-69
2022/01/14 04:31:08;;;;;;;1.40;1.00;;;19.30;48.80;;;;;;6197228;28;20455;-69
2022/01/14 04:34:09;;;;;;;1.38;1.00;;;19.40;48.70;;;;;;6196841;28;20061;-69
2022/01/14 04:37:09;;;;;;;1.65;1.10;;;19.40;48.80;;;;;;6197050;28;20039;-69
2022/01/14 04:40:13;;;;;;;1.65;1.08;;;19.40;48.80;;;;;;6197291;28;20186;-69
2022/01/14 04:43:16;;;;;;;1.85;1.10;;;19.30;48.70;;;;;;6197152;28;20049;-69
2022/01/14 04:49:57;;;;;;;1.67;1.10;;;19.30;48.70;;;;;;6098077;29;20028;-69
2022/01/14 04:52:57;;;;;;;1.58;1.08;;;19.30;48.80;;;;;;6097704;29;20028;-69
2022/01/14 04:55:58;;;;;;;2.42;1.30;;;19.30;48.80;;;;;;6192591;28;20561;-69
2022/01/14 04:58:59;;;;;;;1.23;0.82;;;19.30;48.80;;;;;;6196326;28;20033;-69
2022/01/14 05:01:59;;;;;;;1.42;0.93;;;19.30;48.80;;;;;;6196463;28;20434;-69
2022/01/14 05:05:01;;;;;;;2.30;1.20;;;19.30;48.70;;;;;;6196226;28;20032;-69
2022/01/14 05:08:01;;;;;;;1.77;1.05;;;19.30;48.80;;;;;;6196289;28;20034;-68
2022/01/14 05:11:23;;;;;;;1.73;1.00;;;19.30;48.70;;;;;;6194652;28;20045;-69
2022/01/14 05:14:23;;;;;;;1.52;1.02;;;19.40;48.80;;;;;;6196178;28;20026;-69
2022/01/14 05:17:24;;;;;;;2.25;1.23;;;19.40;48.80;;;;;;6195893;28;20073;-69
2022/01/14 05:20:24;;;;;;;1.10;0.90;;;19.40;48.80;;;;;;6195918;28;20370;-69
2022/01/14 05:23:26;;;;;;;1.00;0.80;;;19.40;48.80;;;;;;6194115;28;20048;-68
2022/01/14 05:26:26;;;;;;;1.98;1.17;;;19.30;48.80;;;;;;6195986;28;20030;-69
2022/01/14 05:29:27;;;;;;;1.90;1.05;;;19.40;48.80;;;;;;6196073;28;20058;-69
2022/01/14 05:32:28;;;;;;;1.80;0.82;;;19.40;48.80;;;;;;6195489;28;20018;-69
2022/01/14 05:35:29;;;;;;;1.80;1.20;;;19.40;48.80;;;;;;6195945;28;20022;-69
2022/01/14 05:38:30;;;;;;;2.25;1.00;;;19.40;48.90;;;;;;6195656;28;20037;-69
2022/01/14 05:41:30;;;;;;;2.13;1.27;;;19.40;48.80;;;;;;6194331;28;20030;-69
2022/01/14 05:44:31;;;;;;;1.40;1.00;;;19.40;48.80;;;;;;6195460;28;20023;-69
2022/01/14 05:47:32;;;;;;;1.08;0.77;;;19.40;48.80;;;;;;6196032;28;20023;-69
2022/01/14 05:50:33;;;;;;;1.75;0.90;;;19.40;48.80;;;;;;6195302;28;20018;-69
2022/01/14 05:53:33;;;;;;;1.42;1.10;;;19.40;48.80;;;;;;6178553;28;20022;-69
2022/01/14 05:56:34;;;;;;;2.50;1.30;;;19.40;48.80;;;;;;6171395;28;20501;-69
2022/01/14 05:59:34;;;;;;;0.85;0.73;;;19.40;48.90;;;;;;6172943;28;20304;-69
2022/01/14 06:02:35;;;;;;;2.53;1.13;;;19.40;48.90;;;;;;6180377;28;20462;-68
2022/01/14 06:05:36;;;;;;;1.58;0.95;;;19.40;49.60;;;;;;6173388;28;20122;-69
2022/01/14 06:08:36;;;;;;;1.58;0.95;;;19.40;48.90;;;;;;6170707;28;20051;-69
2022/01/14 06:11:37;;;;;;;1.88;1.00;;;19.40;48.90;;;;;;6171237;28;20096;-69
2022/01/14 06:14:37;;;;;;;1.33;0.82;;;19.40;48.80;;;;;;6173255;28;20035;-69
2022/01/14 06:17:38;;;;;;;1.10;0.95;;;19.40;48.90;;;;;;6170977;28;20089;-69
2022/01/14 06:20:38;;;;;;;1.35;0.90;;;19.40;48.80;;;;;;6170682;28;20429;-69
2022/01/14 06:23:39;;;;;;;2.28;1.23;;;19.40;48.80;;;;;;6170701;28;20037;-68
2022/01/14 06:26:39;;;;;;;1.40;0.80;;;19.40;48.80;;;;;;6170615;28;20027;-69
2022/01/14 06:29:40;;;;;;;1.75;0.80;;;19.40;48.80;;;;;;6181189;28;20084;-68
2022/01/14 06:32:43;;;;;;;1.13;0.88;;;19.40;48.80;;;;;;6194119;28;20134;-69
2022/01/14 06:35:44;;;;;;;1.80;1.00;;;19.40;48.90;;;;;;6195372;28;20036;-69
2022/01/14 06:38:44;;;;;;;2.28;0.82;;;19.40;48.80;;;;;;6194435;28;20022;-69
2022/01/14 06:41:45;;;;;;;1.58;0.82;;;19.40;48.80;;;;;;6194684;28;20075;-69
2022/01/14 06:44:45;;;;;;;1.52;0.80;;;19.40;48.90;;;;;;6194631;28;20425;-69
2022/01/14 06:47:46;;;;;;;1.60;1.15;;;19.40;48.90;;;;;;6194858;28;20077;-69
2022/01/14 06:50:47;;;;;;;1.05;0.80;;;19.40;48.90;;;;;;6194483;28;20528;-69
2022/01/14 06:53:48;;;;;;;1.52;1.02;;;19.40;48.90;;;;;;6194449;28;20023;-69
2022/01/14 06:56:49;;;;;;;1.85;1.00;;;19.40;48.90;;;;;;6194343;28;20400;-69
2022/01/14 06:59:50;;;;;;;1.00;0.85;;;19.40;48.90;;;;;;6192909;28;20018;-68
2022/01/14 07:02:50;;;;;;;2.17;1.27;;;19.40;48.90;;;;;;6196010;28;20050;-68
2022/01/14 07:05:51;;;;;;;1.48;1.10;;;19.40;48.90;;;;;;6196548;28;20400;-69
2022/01/14 07:08:51;;;;;;;1.13;1.00;;;19.40;48.90;;;;;;6196098;28;20469;-69
2022/01/14 07:11:56;;;;;;;1.40;1.10;;;19.50;49.00;;;;;;6196462;28;20485;-69
2022/01/14 07:14:57;;;;;;;1.30;1.00;;;19.40;49.00;;;;;;6196756;28;20022;-69
2022/01/14 07:17:57;;;;;;;1.40;1.10;;;19.40;48.90;;;;;;6196278;28;20031;-69
2022/01/14 07:20:58;;;;;;;1.83;1.00;;;19.40;48.90;;;;;;6196154;28;20033;-69
2022/01/14 07:23:58;;;;;;;2.70;1.40;;;19.40;49.00;;;;;;6196376;28;20030;-69
2022/01/14 07:26:59;;;;;;;1.85;1.00;;;19.40;48.90;;;;;;6196048;28;20485;-69
2022/01/14 07:29:59;;;;;;;1.48;1.05;;;19.40;49.00;;;;;;6195950;28;20215;-68
2022/01/14 07:33:01;;;;;;;1.45;1.10;;;19.40;49.00;;;;;;6196047;28;20131;-69
2022/01/14 07:36:02;;;;;;;1.90;1.20;;;19.40;49.00;;;;;;6188525;28;20026;-68
2022/01/14 07:39:05;;;;;;;2.15;1.17;;;19.40;49.00;;;;;;6186071;28;20098;-69
2022/01/14 07:42:06;;;;;;;2.20;1.17;;;19.40;49.00;;;;;;6199254;28;20148;-68
2022/01/14 07:45:07;;;;;;;2.95;1.33;;;19.40;49.00;;;;;;6199674;28;20492;-69
2022/01/14 07:48:08;;;;;;;2.72;1.30;;;19.40;49.00;;;;;;6198834;28;20393;-69
2022/01/14 07:51:09;;;;;;;1.95;1.00;;;19.40;49.00;;;;;;6198109;28;20026;-68
2022/01/14 07:54:10;;;;;;;2.58;1.13;;;19.40;49.00;;;;;;6198012;28;20030;-69
2022/01/14 07:57:11;;;;;;;1.50;0.95;;;19.40;49.00;;;;;;6197311;28;20058;-69
2022/01/14 08:00:12;;;;;;;1.42;1.20;;;19.40;49.00;;;;;;6196546;28;20029;-68
2022/01/14 08:03:12;;;;;;;1.60;1.10;;;19.40;49.00;;;;;;6189379;28;20039;-72
2022/01/14 08:06:13;;;;;;;3.08;1.25;;;19.40;49.00;;;;;;6191424;28;20029;-64
2022/01/14 08:09:16;;;;;;;2.85;1.40;;;19.50;49.00;;;;;;6195944;28;20046;-66
2022/01/14 08:12:16;;;;;;;2.60;1.40;;;19.50;48.90;;;;;;6197779;28;20030;-67
2022/01/14 08:15:17;;;;;;;1.98;1.33;;;19.60;48.90;;;;;;6197855;28;20058;-67
2022/01/14 08:18:17;;;;;;;7.22;1.50;;;19.60;48.70;;;;;;6197424;28;20062;-68
2022/01/14 08:21:18;;;;;;;2.13;1.00;;;19.60;48.70;;;;;;6198368;28;20042;-68
2022/01/14 08:24:18;;;;;;;3.35;1.20;;;19.60;48.60;;;;;;6194451;28;20557;-67
2022/01/14 08:27:19;;;;;;;2.10;1.10;;;19.60;48.60;;;;;;6196589;28;20030;-68
2022/01/14 08:30:19;;;;;;;3.72;1.17;;;19.70;48.70;;;;;;6196870;28;20041;-68
2022/01/14 08:33:20;;;;;;;2.10;1.10;;;19.70;48.70;;;;;;6196321;28;20030;-68
2022/01/14 08:36:23;;;;;;;3.45;1.17;;;19.70;48.60;;;;;;6190755;28;20018;-68
2022/01/14 08:39:24;;;;;;;2.28;1.17;;;19.70;48.90;;;;;;6198036;28;20030;-68
2022/01/14 08:42:24;;;;;;;3.40;1.30;;;19.70;49.10;;;;;;6195661;28;20046;-68
2022/01/14 08:45:25;;;;;;;5.43;1.30;;;19.70;49.00;;;;;;6197651;28;20477;-68
2022/01/14 08:48:26;;;;;;;2.92;1.30;;;19.70;48.90;;;;;;6197626;28;20133;-68
2022/01/14 08:51:28;;;;;;;5.68;1.40;;;19.60;49.00;;;;;;6196559;28;20030;-68
2022/01/14 08:54:28;;;;;;;4.88;2.05;;;19.60;49.00;;;;;;6193224;28;20030;-68
2022/01/14 08:57:29;;;;;;;3.22;1.60;;;19.60;48.60;;;;;;6197258;28;20058;-68
2022/01/14 09:00:30;;;;;;;7.00;1.77;;;19.60;48.60;;;;;;6198043;28;20057;-68
2022/01/14 09:03:31;;;;;;;4.03;1.83;;;19.60;48.60;;;;;;6197477;28;20125;-68
2022/01/14 09:06:31;;;;;;;6.20;1.75;;;19.60;48.80;;;;;;6197076;28;20096;-69
2022/01/14 09:09:32;;;;;;;7.05;1.90;;;19.60;48.80;;;;;;6210803;28;20053;-71
2022/01/14 09:12:33;;;;;;;6.28;1.73;;;19.60;48.80;;;;;;6221672;28;20032;-70
2022/01/14 09:15:34;;;;;;;4.55;1.70;;;19.60;48.80;;;;;;6221524;28;20099;-70
2022/01/14 09:18:35;;;;;;;3.80;1.25;;;19.70;48.80;;;;;;6221327;28;20022;-70
2022/01/14 09:21:36;;;;;;;2.28;1.20;;;19.60;48.90;;;;;;6210951;28;20392;-69
2022/01/14 09:24:36;;;;;;;4.05;1.70;;;19.60;48.90;;;;;;6195670;28;20022;-70
2022/01/14 09:27:37;;;;;;;8.10;1.50;;;19.60;48.90;;;;;;6197103;28;20505;-70
2022/01/14 09:30:37;;;;;;;3.30;1.70;;;19.70;49.20;;;;;;6197279;28;20026;-75
2022/01/14 09:33:38;;;;;;;3.63;1.70;;;19.70;49.70;;;;;;6195042;28;20018;-73
2022/01/14 09:36:39;;;;;;;10.48;1.80;;;19.70;48.90;;;;;;6195333;28;20026;-70
2022/01/14 09:39:43;;;;;;;4.40;1.40;;;19.70;49.10;;;;;;6196309;28;20026;-70
2022/01/14 09:42:48;;;;;;;4.20;1.40;;;19.70;49.10;;;;;;6196184;28;20038;-70
2022/01/14 09:45:53;;;;;;;2.35;1.27;;;19.70;49.10;;;;;;6195563;28;20033;-69
2022/01/14 09:48:54;;;;;;;6.63;1.40;;;19.70;49.10;;;;;;6196437;28;20053;-69
2022/01/14 09:51:55;;;;;;;4.00;1.52;;;19.70;49.20;;;;;;6192541;28;20027;-69
2022/01/14 09:54:55;;;;;;;2.55;1.38;;;19.70;49.20;;;;;;6172286;28;20121;-69
2022/01/14 09:57:57;;;;;;;1.58;1.20;;;19.60;49.10;;;;;;6177701;28;20511;-69
2022/01/14 10:01:24;;;;;;;2.55;1.38;;;19.60;49.20;;;;;;6192335;28;20026;-69
2022/01/14 10:04:24;;;;;;;7.55;1.83;;;19.60;49.40;;;;;;6191429;28;20481;-70
2022/01/14 10:07:25;;;;;;;49.25;10.68;;;19.50;49.40;;;;;;6191289;28;20041;-69
2022/01/14 10:10:26;;;;;;;40.72;9.85;;;19.40;48.50;;;;;;6192278;28;20504;-69
2022/01/14 10:13:30;;;;;;;34.85;10.75;;;19.40;48.00;;;;;;6192703;28;20050;-69
2022/01/14 10:16:30;;;;;;;38.97;9.77;;;19.40;47.50;;;;;;6192896;28;20427;-69
2022/01/14 10:19:34;;;;;;;28.23;9.00;;;19.30;47.30;;;;;;6191792;28;20030;-69
2022/01/14 10:22:40;;;;;;;26.53;8.37;;;19.30;47.50;;;;;;6191529;28;20067;-70
2022/01/14 10:25:42;;;;;;;24.25;8.23;;;19.20;46.70;;;;;;6187243;28;20034;-69
2022/01/14 10:28:56;;;;;;;20.67;6.93;;;19.20;46.40;;;;;;6189220;28;20038;-68
2022/01/14 10:31:59;;;;;;;20.40;7.13;;;19.20;46.00;;;;;;6191328;28;20515;-69
2022/01/14 10:35:08;;;;;;;25.55;7.40;;;19.20;45.80;;;;;;6190878;28;20168;-69
2022/01/14 10:38:11;;;;;;;20.67;6.68;;;19.30;45.80;;;;;;6192870;28;20061;-69
2022/01/14 10:41:12;;;;;;;17.63;5.53;;;19.30;45.60;;;;;;6188838;28;20451;-69
2022/01/14 10:44:34;;;;;;;18.20;5.65;;;19.30;45.30;;;;;;6192130;28;20119;-70
2022/01/14 10:47:34;;;;;;;21.98;5.80;;;19.30;45.20;;;;;;6191554;28;20034;-69
2022/01/14 10:50:54;;;;;;;21.23;5.28;;;19.30;45.20;;;;;;6190631;28;20041;-69
2022/01/14 10:53:55;;;;;;;18.90;4.72;;;19.30;44.90;;;;;;6190182;28;20112;-68
2022/01/14 10:57:11;;;;;;;16.42;5.30;;;19.30;44.70;;;;;;6192050;28;20030;-69
2022/01/14 11:00:19;;;;;;;17.63;4.97;;;19.30;44.60;;;;;;6190851;28;20026;-69
2022/01/14 11:03:33;;;;;;;13.95;5.38;;;19.30;44.50;;;;;;6189343;28;20125;-69
2022/01/14 11:06:41;;;;;;;19.53;4.83;;;19.30;44.30;;;;;;6192342;28;20028;-69
2022/01/14 11:09:42;;;;;;;19.30;4.45;;;19.30;44.30;;;;;;6188040;28;20065;-69
2022/01/14 11:12:43;;;;;;;15.70;4.75;;;19.30;44.20;;;;;;6192507;28;20030;-69
2022/01/14 11:15:43;;;;;;;17.63;4.85;;;19.30;44.10;;;;;;6191685;28;20089;-69
2022/01/14 11:18:48;;;;;;;13.80;4.47;;;19.30;44.10;;;;;;6197084;28;20057;-69
2022/01/14 11:25:10;;;;;;;12.35;3.42;;;19.30;44.40;;;;;;6196492;28;20509;-69
2022/01/14 11:28:15;;;;;;;11.38;3.65;;;19.40;45.10;;;;;;6196625;28;20457;-69
2022/01/14 11:31:29;;;;;;;11.37;3.47;;;19.40;45.30;;;;;;6196874;28;20401;-70
2022/01/14 11:34:34;;;;;;;9.38;3.13;;;19.40;45.50;;;;;;6196890;28;20277;-69
2022/01/14 11:37:35;;;;;;;7.43;2.90;;;19.40;45.70;;;;;;6197004;28;20034;-69
2022/01/14 11:40:49;;;;;;;7.38;3.20;;;19.40;45.80;;;;;;6196820;28;20503;-69
2022/01/14 11:43:53;;;;;;;8.63;2.90;;;19.40;45.90;;;;;;6195803;28;20034;-69
2022/01/14 11:47:00;;;;;;;6.70;2.50;;;19.40;46.00;;;;;;6192182;28;20030;-69
2022/01/14 11:50:00;;;;;;;8.68;2.75;;;19.40;46.10;;;;;;6196796;28;20523;-69
2022/01/14 11:53:02;;;;;;;8.98;3.08;;;19.40;46.30;;;;;;6198501;28;20030;-68
2022/01/14 11:56:26;;;;;;;7.95;2.67;;;19.40;46.40;;;;;;6196061;28;20033;-69
2022/01/14 11:59:27;;;;;;;7.13;2.42;;;19.40;46.30;;;;;;6194854;28;20046;-69
2022/01/14 12:02:32;;;;;;;7.05;2.58;;;19.40;46.50;;;;;;6196013;28;20065;-69
2022/01/14 12:05:33;;;;;;;;;;;19.40;46.50;;;;;;6195446;28;20355;-68
2022/01/14 12:08:37;;;;;;;5.85;2.55;;;19.40;46.60;;;;;;6194232;28;20304;-69
2022/01/14 12:11:38;;;;;;;7.27;2.07;;;19.40;46.70;;;;;;6195048;28;20026;-69
2022/01/14 12:14:45;;;;;;;6.15;2.15;;;19.40;46.80;;;;;;6194644;28;20069;-69
2022/01/14 12:17:45;;;;;;;6.50;2.50;;;19.40;46.90;;;;;;6195779;28;20030;-69
2022/01/14 12:20:50;;;;;;;5.10;2.15;;;19.40;47.00;;;;;;6195088;28;20508;-69
2022/01/14 12:23:50;;;;;;;4.60;2.23;;;19.40;47.00;;;;;;6192912;28;20548;-69
2022/01/14 12:27:11;;;;;;;5.30;2.40;;;19.40;47.00;;;;;;6192826;28;20034;-70
2022/01/14 12:30:17;;;;;;;4.78;2.03;;;19.40;47.10;;;;;;6193821;28;20429;-69
2022/01/14 12:33:45;;;;;;;3.92;1.92;;;19.40;47.20;;;;;;6194587;28;20509;-69
2022/01/14 12:36:46;;;;;;;6.03;2.10;;;19.40;47.20;;;;;;6194024;28;20034;-69
2022/01/14 12:39:51;;;;;;;4.47;2.20;;;19.40;47.30;;;;;;6194640;28;20491;-69
2022/01/14 12:42:56;;;;;;;3.78;1.88;;;19.40;47.30;;;;;;6194748;28;20041;-69
2022/01/14 12:46:24;;;;;;;6.82;2.53;;;19.40;47.30;;;;;;6194979;28;20030;-69
2022/01/14 12:49:27;;;;;;;5.97;2.38;;;19.40;47.40;;;;;;6195683;28;20030;-69
2022/01/14 12:52:38;;;;;;;8.18;2.17;;;19.40;47.40;;;;;;6193505;28;20023;-68
2022/01/14 12:55:38;;;;;;;5.57;2.05;;;19.40;47.50;;;;;;6193875;28;20022;-69
2022/01/14 12:58:50;;;;;;;5.05;2.03;;;19.40;47.50;;;;;;6194709;28;20030;-69
2022/01/14 13:01:53;;;;;;;4.53;2.10;;;19.40;47.60;;;;;;6194359;28;20378;-69
2022/01/14 13:05:05;;;;;;;5.78;2.50;;;19.40;47.60;;;;;;6194404;28;20128;-69
2022/01/14 13:08:06;;;;;;;4.30;1.85;;;19.40;47.60;;;;;;6194321;28;20173;-69
2022/01/14 13:11:07;;;;;;;6.65;2.05;;;19.40;47.60;;;;;;6194500;28;20030;-69
2022/01/14 13:14:09;;;;;;;5.32;2.25;;;19.40;47.60;;;;;;6193921;28;20073;-70
2022/01/14 13:17:15;;;;;;;4.15;2.08;;;19.40;47.60;;;;;;6193509;28;20065;-69
2022/01/14 13:20:17;;;;;;;4.80;2.15;;;19.40;47.70;;;;;;6194278;28;20026;-70
2022/01/14 13:23:20;;;;;;;5.03;2.00;;;19.40;47.70;;;;;;6193813;28;20084;-69
2022/01/14 13:26:21;;;;;;;4.18;2.10;;;19.40;47.70;;;;;;6191846;28;20081;-69
2022/01/14 13:29:21;;;;;;;6.68;1.95;;;19.50;47.80;;;;;;6191412;28;20038;-69
2022/01/14 13:32:25;;;;;;;8.10;2.08;;;19.40;47.80;;;;;;6189465;28;20432;-69
2022/01/14 13:35:30;;;;;;;5.82;2.15;;;19.50;48.30;;;;;;6191422;28;20030;-69
2022/01/14 13:38:32;;;;;;;5.47;2.30;;;19.50;48.10;;;;;;6192362;28;20493;-69
2022/01/14 13:41:32;;;;;;;3.72;1.88;;;19.50;47.80;;;;;;6193016;28;20049;-69
2022/01/14 13:44:34;;;;;;;6.30;2.05;;;19.60;47.70;;;;;;6192615;28;20101;-70
2022/01/14 13:47:36;;;;;;;8.80;2.20;;;19.60;47.60;;;;;;6193143;28;20041;-70
2022/01/14 13:50:47;;;;;;;2.65;1.67;;;19.60;47.70;;;;;;6192873;28;20120;-69
2022/01/14 13:53:49;;;;;;;4.68;1.80;;;19.60;47.90;;;;;;6191780;28;20034;-69
2022/01/14 13:56:50;;;;;;;3.53;1.70;;;19.60;47.80;;;;;;6191625;28;20509;-69
2022/01/14 13:59:50;;;;;;;5.10;2.08;;;19.60;47.90;;;;;;6193119;28;20030;-70
2022/01/14 14:02:52;;;;;;;3.75;1.90;;;19.50;47.90;;;;;;6192153;28;20523;-69
2022/01/14 14:05:59;;;;;;;6.97;1.90;;;19.50;48.60;;;;;;6188609;28;20031;-68
2022/01/14 14:09:06;;;;;;;3.75;1.70;;;19.50;48.00;;;;;;6191529;28;20049;-69
2022/01/14 14:12:40;;;;;;;5.35;2.03;;;19.50;48.00;;;;;;6196129;28;20415;-70
2022/01/14 14:15:45;;;;;;;5.35;2.13;;;19.50;48.00;;;;;;6195965;28;20228;-70
2022/01/14 14:18:48;;;;;;;;;;;19.50;48.00;;;;;;6196440;28;20030;-70
2022/01/14 14:22:07;;;;;;;4.93;1.90;;;19.50;48.00;;;;;;6195897;28;19916;-70
2022/01/14 14:25:16;;;;;;;6.03;2.15;;;19.50;47.90;;;;;;6193985;28;20027;-70
2022/01/14 14:28:26;;;;;;;3.78;2.13;;;19.50;47.70;;;;;;6195614;28;20485;-70
2022/01/14 14:31:33;;;;;;;8.95;2.15;;;19.40;47.40;;;;;;6195555;28;20116;-69
2022/01/14 14:34:33;;;;;;;5.90;2.38;;;19.50;47.30;;;;;;6195555;28;20031;-70
2022/01/14 14:37:37;;;;;;;9.93;2.85;;;19.40;47.00;;;;;;6195319;28;20157;-70
2022/01/14 14:40:37;;;;;;;6.03;2.00;;;19.40;46.80;;;;;;6195857;28;20022;-70
2022/01/14 14:43:38;;;;;;;6.13;2.38;;;19.40;46.80;;;;;;6194077;28;20389;-70
2022/01/14 14:46:41;;;;;;;3.55;2.05;;;19.50;47.10;;;;;;6192653;28;20073;-70
2022/01/14 14:49:42;;;;;;;3.58;1.92;;;19.40;47.10;;;;;;6195318;28;20033;-69
2022/01/14 14:52:42;;;;;;;4.53;2.08;;;19.40;47.20;;;;;;6188684;28;20022;-70
2022/01/14 14:55:43;;;;;;;4.80;1.80;;;19.50;47.30;;;;;;6176472;28;20019;-70
2022/01/14 14:58:44;;;;;;;4.68;1.70;;;19.50;47.50;;;;;;6188694;28;20030;-69
2022/01/14 15:01:44;;;;;;;3.22;1.80;;;19.50;47.60;;;;;;6200429;28;20033;-70
2022/01/14 15:04:45;;;;;;;3.08;1.50;;;19.50;47.70;;;;;;6200810;28;20549;-69
2022/01/14 15:07:47;;;;;;;3.90;1.67;;;19.50;47.70;;;;;;6199781;28;20178;-69
2022/01/14 15:10:48;;;;;;;3.95;1.48;;;19.50;47.80;;;;;;6224399;28;20038;-70
2022/01/14 15:13:48;;;;;;;4.60;1.60;;;19.50;47.80;;;;;;6224698;28;20026;-69
2022/01/14 15:19:51;;;;;;;4.70;1.52;;;19.50;47.90;;;;;;6224704;28;20030;-69
2022/01/14 15:22:53;;;;;;;3.53;1.30;;;19.50;48.00;;;;;;6217953;28;20559;-70
2022/01/14 15:25:54;;;;;;;2.33;1.20;;;19.50;48.00;;;;;;6197530;28;20041;-70
2022/01/14 15:28:54;;;;;;;3.35;1.30;;;19.50;48.00;;;;;;6199772;28;20370;-69
2022/01/14 15:31:55;;;;;;;3.60;1.40;;;19.50;48.00;;;;;;6199509;28;20389;-70
2022/01/14 15:34:55;;;;;;;2.50;1.40;;;19.50;48.10;;;;;;6199737;28;20034;-70
2022/01/14 15:38:02;;;;;;;3.05;1.17;;;19.50;48.10;;;;;;6200069;28;20512;-70
2022/01/14 15:41:03;;;;;;;2.97;1.35;;;19.50;48.10;;;;;;6199602;28;20034;-69
2022/01/14 15:44:04;;;;;;;3.30;1.52;;;19.50;48.00;;;;;;6198592;28;20506;-70
2022/01/14 15:47:04;;;;;;;2.13;1.38;;;19.50;47.80;;;;;;6199721;28;20030;-69
2022/01/14 15:50:10;;;;;;;4.40;1.50;;;19.40;47.50;;;;;;6198283;28;20029;-69
2022/01/14 15:53:12;;;;;;;4.32;1.60;;;19.40;47.30;;;;;;6185418;28;20043;-69
2022/01/14 15:56:12;;;;;;;4.97;1.80;;;19.50;47.30;;;;;;6175397;28;20035;-70
2022/01/14 15:59:13;;;;;;;4.03;1.52;;;19.40;47.30;;;;;;6191459;28;20588;-69
2022/01/14 16:02:13;;;;;;;6.78;1.77;;;19.50;47.40;;;;;;6199492;28;20495;-70
2022/01/14 16:05:14;;;;;;;4.43;1.38;;;19.40;47.50;;;;;;6198031;28;20097;-70
2022/01/14 16:08:15;;;;;;;7.07;1.45;;;19.50;47.60;;;;;;6202253;28;20054;-69
2022/01/14 16:11:15;;;;;;;5.03;1.65;;;19.50;47.70;;;;;;6223365;28;20109;-70
2022/01/14 16:14:31;;;;;;;3.65;1.30;;;19.40;47.70;;;;;;6223169;28;20026;-70
2022/01/14 16:17:32;;;;;;;;;;;19.50;47.80;;;;;;6217288;28;20049;-70
2022/01/14 16:20:33;;;;;;;2.35;1.27;;;19.40;47.80;;;;;;6199538;28;19913;-69